Time,TemperatureF,DewpointF,PressureIn,WindDirection,WindDirectionDegrees,WindSpeedMPH,WindSpeedGustMPH,Humidity,HourlyPrecipIn,Conditions,Clouds,dailyrainin,SolarRadiationWatts/m^2,SoftwareType,DateUTC
2013-06-05 00:02:00,52.2,43.0,29.99,South,171,0.0,1.0,72,0.00,,,0.00,0,weatherlink.com 1.10,2013-06-05 07:02:00,
2013-06-05 00:17:00,52.1,43.0,29.99,South,171,0.0,0.0,72,0.00,,,0.00,0,weatherlink.com 1.10,2013-06-05 07:17:00,
2013-06-05 00:32:00,52.1,43.0,29.99,South,171,0.0,1.0,72,0.00,,,0.00,0,weatherlink.com 1.10,2013-06-05 07:32:00,
2013-06-05 00:47:00,52.1,43.0,29.99,South,171,0.0,1.0,72,0.00,,,0.00,0,weatherlink.com 1.10,2013-06-05 07:47:00,
2013-06-05 01:02:00,52.0,43.0,29.99,South,171,0.0,1.0,72,0.00,,,0.00,0,weatherlink.com 1.10,2013-06-05 08:02:00,
2013-06-05 01:17:00,51.9,43.0,29.98,South,171,0.0,2.0,72,0.00,,,0.00,0,weatherlink.com 1.10,2013-06-05 08:17:00,
2013-06-05 01:32:00,51.9,43.0,29.98,South,173,0.0,2.0,72,0.00,,,0.00,0,weatherlink.com 1.10,2013-06-05 08:32:00,
2013-06-05 01:47:00,51.7,43.0,29.98,South,173,0.0,1.0,72,0.00,,,0.00,0,weatherlink.com 1.10,2013-06-05 08:47:00,
2013-06-05 02:02:00,51.5,43.0,29.98,South,173,0.0,2.0,72,0.00,,,0.00,0,weatherlink.com 1.10,2013-06-05 09:02:00,
2013-06-05 02:17:00,51.3,43.0,29.98,South,173,0.0,2.0,72,0.00,,,0.00,0,weatherlink.com 1.10,2013-06-05 09:17:00,
2013-06-05 02:32:00,51.2,42.0,29.98,SW,227,2.0,2.0,72,0.00,,,0.00,0,weatherlink.com 1.10,2013-06-05 09:32:00,
2013-06-05 02:47:00,51.0,42.0,29.98,SW,227,1.0,3.0,72,0.01,,,0.01,0,weatherlink.com 1.10,2013-06-05 09:47:00,
2013-06-05 03:02:00,50.9,42.0,29.98,West,259,0.0,2.0,72,0.01,,,0.01,0,weatherlink.com 1.10,2013-06-05 10:02:00,
2013-06-05 03:17:00,50.9,42.0,29.98,West,272,2.0,4.0,72,0.01,,,0.01,0,weatherlink.com 1.10,2013-06-05 10:17:00,
2013-06-05 03:32:00,50.8,42.0,29.97,West,272,1.0,2.0,72,0.01,,,0.01,0,weatherlink.com 1.10,2013-06-05 10:32:00,
2013-06-05 03:47:00,50.8,42.0,29.97,West,272,0.0,3.0,72,0.00,,,0.01,0,weatherlink.com 1.10,2013-06-05 10:47:00,
2013-06-05 04:02:00,50.6,42.0,29.97,West,272,0.0,4.0,72,0.00,,,0.01,0,weatherlink.com 1.10,2013-06-05 11:02:00,
2013-06-05 04:17:00,50.4,42.0,29.97,West,272,1.0,3.0,72,0.00,,,0.01,0,weatherlink.com 1.10,2013-06-05 11:17:00,
2013-06-05 04:32:00,50.3,42.0,29.97,West,272,1.0,2.0,72,0.00,,,0.01,0,weatherlink.com 1.10,2013-06-05 11:32:00,
2013-06-05 04:47:00,50.5,42.0,29.97,West,272,0.0,1.0,72,0.00,,,0.01,0,weatherlink.com 1.10,2013-06-05 11:47:00,
2013-06-05 05:02:00,50.5,42.0,29.97,West,272,0.0,2.0,72,0.00,,,0.01,0,weatherlink.com 1.10,2013-06-05 12:02:00,
2013-06-05 05:17:00,50.3,42.0,29.97,West,272,0.0,2.0,72,0.00,,,0.01,0,weatherlink.com 1.10,2013-06-05 12:17:00,
2013-06-05 05:32:00,50.3,42.0,29.97,West,272,0.0,2.0,72,0.00,,,0.01,0,weatherlink.com 1.10,2013-06-05 12:32:00,
2013-06-05 05:47:00,50.2,41.0,29.97,West,272,0.0,1.0,72,0.00,,,0.01,0,weatherlink.com 1.10,2013-06-05 12:47:00,
2013-06-05 06:02:00,50.1,41.0,29.97,West,272,0.0,1.0,72,0.00,,,0.01,5,weatherlink.com 1.10,2013-06-05 13:02:00,
2013-06-05 06:17:00,50.2,41.0,29.98,West,272,0.0,0.0,72,0.00,,,0.01,12,weatherlink.com 1.10,2013-06-05 13:17:00,
2013-06-05 06:32:00,50.2,41.0,29.98,West,272,0.0,1.0,72,0.00,,,0.01,23,weatherlink.com 1.10,2013-06-05 13:32:00,
2013-06-05 06:47:00,50.2,41.0,29.98,West,272,1.0,2.0,72,0.00,,,0.01,32,weatherlink.com 1.10,2013-06-05 13:47:00,
2013-06-05 07:03:00,50.2,41.0,29.98,West,272,0.0,2.0,72,0.00,,,0.01,47,weatherlink.com 1.10,2013-06-05 14:03:00,
2013-06-05 07:18:00,50.5,42.0,29.98,West,272,1.0,1.0,72,0.00,,,0.01,58,weatherlink.com 1.10,2013-06-05 14:18:00,
2013-06-05 07:33:00,50.9,42.0,29.98,West,272,1.0,2.0,72,0.00,,,0.01,77,weatherlink.com 1.10,2013-06-05 14:33:00,
2013-06-05 07:48:00,51.0,42.0,29.99,West,272,1.0,3.0,72,0.00,,,0.01,97,weatherlink.com 1.10,2013-06-05 14:48:00,
2013-06-05 08:03:00,51.5,43.0,30.00,SW,225,3.0,4.0,72,0.00,,,0.01,111,weatherlink.com 1.10,2013-06-05 15:03:00,
2013-06-05 08:18:00,52.1,43.0,30.00,SW,217,1.0,4.0,72,0.00,,,0.01,146,weatherlink.com 1.10,2013-06-05 15:18:00,
2013-06-05 08:33:00,52.4,44.0,30.01,South,182,2.0,4.0,72,0.00,,,0.01,186,weatherlink.com 1.10,2013-06-05 15:33:00,
2013-06-05 08:48:00,52.7,44.0,30.02,South,180,2.0,3.0,72,0.00,,,0.01,213,weatherlink.com 1.10,2013-06-05 15:48:00,
2013-06-05 09:03:00,53.1,44.0,30.02,SSE,165,1.0,5.0,72,0.00,,,0.01,221,weatherlink.com 1.10,2013-06-05 16:03:00,
2013-06-05 09:18:00,53.2,44.0,30.02,SSE,157,3.0,4.0,72,0.00,,,0.01,234,weatherlink.com 1.10,2013-06-05 16:18:00,
2013-06-05 09:33:00,53.9,45.0,30.01,SSE,148,3.0,5.0,72,0.00,,,0.01,306,weatherlink.com 1.10,2013-06-05 16:33:00,
2013-06-05 09:48:00,54.8,46.0,30.02,SSE,163,4.0,8.0,72,0.00,,,0.01,568,weatherlink.com 1.10,2013-06-05 16:48:00,
2013-06-05 10:03:00,55.8,47.0,30.02,South,183,3.0,7.0,73,0.00,,,0.01,935,weatherlink.com 1.10,2013-06-05 17:03:00,
2013-06-05 10:18:00,56.8,48.0,30.02,SSE,153,5.0,7.0,72,0.00,,,0.01,722,weatherlink.com 1.10,2013-06-05 17:18:00,
2013-06-05 10:33:00,58.0,49.0,30.02,South,180,5.0,7.0,72,0.00,,,0.01,735,weatherlink.com 1.10,2013-06-05 17:33:00,
2013-06-05 10:48:00,57.5,49.0,30.02,SW,222,3.0,6.0,72,0.00,,,0.01,691,weatherlink.com 1.10,2013-06-05 17:48:00,
2013-06-05 11:03:00,56.8,48.0,30.02,WSW,242,2.0,7.0,72,0.00,,,0.01,891,weatherlink.com 1.10,2013-06-05 18:03:00,
2013-06-05 11:18:00,57.3,48.0,30.01,South,183,5.0,6.0,72,0.00,,,0.01,907,weatherlink.com 1.10,2013-06-05 18:18:00,
2013-06-05 11:33:00,57.7,48.0,30.01,SW,231,1.0,6.0,71,0.00,,,0.01,930,weatherlink.com 1.10,2013-06-05 18:33:00,
2013-06-05 11:49:00,57.1,48.0,30.01,SW,219,3.0,6.0,71,0.00,,,0.01,891,weatherlink.com 1.10,2013-06-05 18:49:00,
2013-06-05 12:03:00,58.6,49.0,30.00,South,188,4.0,6.0,71,0.00,,,0.01,967,weatherlink.com 1.10,2013-06-05 19:03:00,
2013-06-05 12:18:00,59.4,49.0,30.00,SSW,196,2.0,6.0,69,0.00,,,0.01,983,weatherlink.com 1.10,2013-06-05 19:18:00,
2013-06-05 12:33:00,60.0,49.0,30.01,SW,215,2.0,7.0,68,0.00,,,0.01,833,weatherlink.com 1.10,2013-06-05 19:33:00,
2013-06-05 12:49:00,60.5,50.0,30.01,SSW,206,5.0,7.0,68,0.00,,,0.01,1053,weatherlink.com 1.10,2013-06-05 19:49:00,
2013-06-05 13:04:00,60.3,50.0,30.01,SSW,198,6.0,7.0,69,0.00,,,0.01,728,weatherlink.com 1.10,2013-06-05 20:04:00,
2013-06-05 13:19:00,59.5,49.0,30.01,SSW,211,5.0,7.0,68,0.00,,,0.01,773,weatherlink.com 1.10,2013-06-05 20:19:00,
2013-06-05 13:34:00,60.1,49.0,30.00,SSW,212,4.0,7.0,68,0.00,,,0.01,884,weatherlink.com 1.10,2013-06-05 20:34:00,
2013-06-05 13:49:00,60.9,50.0,30.00,SW,223,5.0,7.0,68,0.00,,,0.01,737,weatherlink.com 1.10,2013-06-05 20:49:00,
2013-06-05 14:04:00,61.2,50.0,30.00,South,175,3.0,7.0,67,0.00,,,0.01,779,weatherlink.com 1.10,2013-06-05 21:04:00,
2013-06-05 14:19:00,61.4,50.0,30.00,SW,224,4.0,7.0,67,0.00,,,0.01,717,weatherlink.com 1.10,2013-06-05 21:19:00,
2013-06-05 14:34:00,60.6,49.0,30.00,SSW,197,6.0,6.0,66,0.00,,,0.01,782,weatherlink.com 1.10,2013-06-05 21:34:00,
2013-06-05 14:49:00,59.4,49.0,30.00,SSW,208,5.0,7.0,68,0.00,,,0.01,754,weatherlink.com 1.10,2013-06-05 21:49:00,
2013-06-05 15:04:00,57.4,48.0,30.00,SW,234,5.0,7.0,70,0.00,,,0.01,673,weatherlink.com 1.10,2013-06-05 22:04:00,
2013-06-05 15:19:00,56.7,47.0,30.00,West,259,6.0,8.0,71,0.00,,,0.01,865,weatherlink.com 1.10,2013-06-05 22:19:00,
2013-06-05 15:34:00,58.5,49.0,29.99,SSW,207,2.0,8.0,70,0.00,,,0.01,696,weatherlink.com 1.10,2013-06-05 22:34:00,
2013-06-05 15:49:00,60.4,49.0,29.99,WSW,238,2.0,8.0,67,0.00,,,0.01,791,weatherlink.com 1.10,2013-06-05 22:49:00,
2013-06-05 16:04:00,58.9,49.0,29.98,West,271,4.0,8.0,69,0.00,,,0.01,689,weatherlink.com 1.10,2013-06-05 23:04:00,
2013-06-05 16:19:00,58.0,48.0,29.98,SSW,201,5.0,7.0,70,0.00,,,0.01,786,weatherlink.com 1.10,2013-06-05 23:19:00,
2013-06-05 16:34:00,59.5,49.0,29.97,SSW,209,6.0,8.0,69,0.00,,,0.01,527,weatherlink.com 1.10,2013-06-05 23:34:00,
2013-06-05 16:49:00,61.0,50.0,29.97,WSW,258,4.0,8.0,67,0.00,,,0.01,466,weatherlink.com 1.10,2013-06-05 23:49:00,
2013-06-05 17:04:00,58.9,49.0,29.97,WSW,239,4.0,9.0,69,0.00,,,0.01,394,weatherlink.com 1.10,2013-06-06 00:04:00,
2013-06-05 17:19:00,58.1,48.0,29.97,SW,215,3.0,7.0,70,0.00,,,0.01,288,weatherlink.com 1.10,2013-06-06 00:19:00,
2013-06-05 17:34:00,56.3,47.0,29.96,WSW,242,4.0,6.0,70,0.00,,,0.01,362,weatherlink.com 1.10,2013-06-06 00:34:00,
2013-06-05 17:49:00,56.1,47.0,29.96,SW,229,4.0,7.0,71,0.00,,,0.01,200,weatherlink.com 1.10,2013-06-06 00:49:00,
2013-06-05 18:04:00,55.3,46.0,29.96,SSW,209,2.0,5.0,72,0.00,,,0.01,213,weatherlink.com 1.10,2013-06-06 01:04:00,
2013-06-05 18:19:00,56.0,47.0,29.95,SSW,200,1.0,5.0,72,0.00,,,0.01,156,weatherlink.com 1.10,2013-06-06 01:19:00,
2013-06-05 18:34:00,55.4,46.0,29.95,WSW,246,1.0,5.0,71,0.00,,,0.01,137,weatherlink.com 1.10,2013-06-06 01:34:00,
2013-06-05 18:49:00,54.8,46.0,29.95,WSW,255,4.0,7.0,72,0.00,,,0.01,165,weatherlink.com 1.10,2013-06-06 01:49:00,
2013-06-05 19:04:00,54.1,45.0,29.95,SW,232,0.0,5.0,72,0.00,,,0.01,91,weatherlink.com 1.10,2013-06-06 02:04:00,
2013-06-05 19:19:00,53.7,45.0,29.95,SW,228,2.0,6.0,72,0.00,,,0.01,62,weatherlink.com 1.10,2013-06-06 02:19:00,
2013-06-05 19:34:00,53.7,45.0,29.95,WSW,252,0.0,3.0,72,0.00,,,0.01,51,weatherlink.com 1.10,2013-06-06 02:34:00,
2013-06-05 19:49:00,53.5,45.0,29.95,West,272,0.0,5.0,73,0.00,,,0.01,37,weatherlink.com 1.10,2013-06-06 02:49:00,
2013-06-05 20:04:00,53.1,44.0,29.95,West,272,0.0,4.0,72,0.00,,,0.01,25,weatherlink.com 1.10,2013-06-06 03:04:00,
2013-06-05 20:19:00,53.1,44.0,29.95,SW,222,2.0,4.0,72,0.00,,,0.01,11,weatherlink.com 1.10,2013-06-06 03:19:00,
2013-06-05 20:34:00,52.9,44.0,29.96,SW,217,1.0,4.0,73,0.00,,,0.01,0,weatherlink.com 1.10,2013-06-06 03:34:00,
2013-06-05 20:49:00,52.5,44.0,29.96,SW,223,1.0,4.0,73,0.00,,,0.01,0,weatherlink.com 1.10,2013-06-06 03:49:00,
2013-06-05 21:04:00,52.4,44.0,29.96,SW,221,0.0,4.0,73,0.00,,,0.01,0,weatherlink.com 1.10,2013-06-06 04:04:00,
2013-06-05 21:19:00,52.2,44.0,29.96,West,265,2.0,5.0,73,0.00,,,0.01,0,weatherlink.com 1.10,2013-06-06 04:19:00,
2013-06-05 21:34:00,51.9,43.0,29.96,West,262,0.0,3.0,73,0.00,,,0.01,0,weatherlink.com 1.10,2013-06-06 04:34:00,
2013-06-05 21:49:00,51.8,43.0,29.97,WSW,257,0.0,4.0,73,0.00,,,0.01,0,weatherlink.com 1.10,2013-06-06 04:49:00,
2013-06-05 22:04:00,52.0,43.0,29.97,WSW,257,0.0,2.0,72,0.00,,,0.01,0,weatherlink.com 1.10,2013-06-06 05:04:00,
2013-06-05 22:19:00,52.2,43.0,29.97,WSW,256,2.0,3.0,72,0.00,,,0.01,0,weatherlink.com 1.10,2013-06-06 05:19:00,
2013-06-05 22:34:00,51.9,43.0,29.97,WSW,256,0.0,2.0,73,0.00,,,0.01,0,weatherlink.com 1.10,2013-06-06 05:34:00,
2013-06-05 22:49:00,52.1,43.0,29.97,SW,225,2.0,3.0,72,0.00,,,0.01,0,weatherlink.com 1.10,2013-06-06 05:49:00,
2013-06-05 23:04:00,52.4,44.0,29.97,SW,225,0.0,2.0,72,0.00,,,0.01,0,weatherlink.com 1.10,2013-06-06 06:04:00,
2013-06-05 23:19:00,52.5,44.0,29.97,SSE,154,1.0,4.0,73,0.00,,,0.01,0,weatherlink.com 1.10,2013-06-06 06:19:00,
2013-06-05 23:34:00,52.6,44.0,29.97,South,173,1.0,4.0,73,0.00,,,0.01,0,weatherlink.com 1.10,2013-06-06 06:34:00,
2013-06-05 23:49:00,52.3,44.0,29.96,South,169,2.0,5.0,73,0.00,,,0.01,0,weatherlink.com 1.10,2013-06-06 06:49:00,